sensor_id;sensor_type;location;lat;lon;timestamp;temperature;humidity
55064;DHT22;40963;52.168;21.296;2023-06-10T00:01:58;18.90;99.90
55064;DHT22;40963;52.168;21.296;2023-06-10T00:04:25;18.80;99.90
55064;DHT22;40963;52.168;21.296;2023-06-10T00:06:51;18.80;99.90
55064;DHT22;40963;52.168;21.296;2023-06-10T00:09:17;18.80;99.90
55064;DHT22;40963;52.168;21.296;2023-06-10T00:11:44;18.70;99.90
55064;DHT22;40963;52.168;21.296;2023-06-10T00:14:09;18.70;99.90
55064;DHT22;40963;52.168;21.296;2023-06-10T00:16:35;18.60;99.90
55064;DHT22;40963;52.168;21.296;2023-06-10T00:19:02;18.60;99.90
55064;DHT22;40963;52.168;21.296;2023-06-10T00:21:29;18.50;99.90
55064;DHT22;40963;52.168;21.296;2023-06-10T00:23:56;18.50;99.90
55064;DHT22;40963;52.168;21.296;2023-06-10T00:26:22;18.50;99.90
55064;DHT22;40963;52.168;21.296;2023-06-10T00:28:48;18.40;99.90
55064;DHT22;40963;52.168;21.296;2023-06-10T00:31:14;18.40;99.90
55064;DHT22;40963;52.168;21.296;2023-06-10T00:33:39;18.40;99.90
55064;DHT22;40963;52.168;21.296;2023-06-10T00:36:05;18.30;99.90
55064;DHT22;40963;52.168;21.296;2023-06-10T00:38:31;18.30;99.90
55064;DHT22;40963;52.168;21.296;2023-06-10T00:40:57;18.20;99.90
55064;DHT22;40963;52.168;21.296;2023-06-10T00:43:23;18.20;99.90
55064;DHT22;40963;52.168;21.296;2023-06-10T00:45:49;18.10;99.90
55064;DHT22;40963;52.168;21.296;2023-06-10T00:48:15;18.10;99.90
55064;DHT22;40963;52.168;21.296;2023-06-10T00:50:41;18.00;99.90
55064;DHT22;40963;52.168;21.296;2023-06-10T00:53:09;18.00;99.90
55064;DHT22;40963;52.168;21.296;2023-06-10T00:55:36;17.90;99.90
55064;DHT22;40963;52.168;21.296;2023-06-10T00:58:03;17.90;99.90
55064;DHT22;40963;52.168;21.296;2023-06-10T01:00:29;17.80;99.90
55064;DHT22;40963;52.168;21.296;2023-06-10T01:02:55;17.70;99.90
55064;DHT22;40963;52.168;21.296;2023-06-10T01:05:21;17.70;99.90
55064;DHT22;40963;52.168;21.296;2023-06-10T01:07:51;17.60;99.90
55064;DHT22;40963;52.168;21.296;2023-06-10T01:10:33;17.50;99.90
55064;DHT22;40963;52.168;21.296;2023-06-10T01:13:01;17.50;99.90
55064;DHT22;40963;52.168;21.296;2023-06-10T01:15:33;17.40;99.90
55064;DHT22;40963;52.168;21.296;2023-06-10T01:18:04;17.40;99.90
55064;DHT22;40963;52.168;21.296;2023-06-10T01:20:34;17.40;99.90
55064;DHT22;40963;52.168;21.296;2023-06-10T01:23:02;17.30;99.90
55064;DHT22;40963;52.168;21.296;2023-06-10T01:25:29;17.20;99.90
55064;DHT22;40963;52.168;21.296;2023-06-10T01:28:22;17.20;99.90
55064;DHT22;40963;52.168;21.296;2023-06-10T01:33:47;17.20;99.90
55064;DHT22;40963;52.168;21.296;2023-06-10T01:36:15;17.10;99.90
55064;DHT22;40963;52.168;21.296;2023-06-10T01:38:46;17.10;99.90
55064;DHT22;40963;52.168;21.296;2023-06-10T01:41:17;17.10;99.90
55064;DHT22;40963;52.168;21.296;2023-06-10T01:43:43;17.00;99.90
55064;DHT22;40963;52.168;21.296;2023-06-10T01:46:09;16.90;99.90
55064;DHT22;40963;52.168;21.296;2023-06-10T01:48:35;16.90;99.90
55064;DHT22;40963;52.168;21.296;2023-06-10T01:51:00;16.80;99.90
55064;DHT22;40963;52.168;21.296;2023-06-10T01:53:26;16.80;99.90
55064;DHT22;40963;52.168;21.296;2023-06-10T01:55:52;16.70;99.90
55064;DHT22;40963;52.168;21.296;2023-06-10T01:58:17;16.70;99.90
55064;DHT22;40963;52.168;21.296;2023-06-10T02:00:43;16.60;99.90
55064;DHT22;40963;52.168;21.296;2023-06-10T02:03:08;16.60;99.90
55064;DHT22;40963;52.168;21.296;2023-06-10T02:05:34;16.50;99.90
55064;DHT22;40963;52.168;21.296;2023-06-10T02:08:00;16.50;99.90
55064;DHT22;40963;52.168;21.296;2023-06-10T02:10:26;16.40;99.90
55064;DHT22;40963;52.168;21.296;2023-06-10T02:12:51;16.30;99.90
55064;DHT22;40963;52.168;21.296;2023-06-10T02:15:17;16.30;99.90
55064;DHT22;40963;52.168;21.296;2023-06-10T02:17:43;16.20;99.90
55064;DHT22;40963;52.168;21.296;2023-06-10T02:20:10;16.10;99.60
55064;DHT22;40963;52.168;21.296;2023-06-10T02:22:37;16.10;99.20
55064;DHT22;40963;52.168;21.296;2023-06-10T02:25:03;16.00;98.80
55064;DHT22;40963;52.168;21.296;2023-06-10T02:27:29;16.00;98.30
55064;DHT22;40963;52.168;21.296;2023-06-10T02:29:56;15.90;97.80
55064;DHT22;40963;52.168;21.296;2023-06-10T02:32:22;15.80;97.30
55064;DHT22;40963;52.168;21.296;2023-06-10T02:34:47;15.80;97.00
55064;DHT22;40963;52.168;21.296;2023-06-10T02:37:14;15.80;96.70
55064;DHT22;40963;52.168;21.296;2023-06-10T02:39:41;15.80;96.30
55064;DHT22;40963;52.168;21.296;2023-06-10T02:42:07;15.70;95.80
55064;DHT22;40963;52.168;21.296;2023-06-10T02:44:32;15.70;95.40
55064;DHT22;40963;52.168;21.296;2023-06-10T02:46:58;15.70;95.00
55064;DHT22;40963;52.168;21.296;2023-06-10T02:49:24;15.70;94.70
55064;DHT22;40963;52.168;21.296;2023-06-10T02:51:50;15.70;94.40
55064;DHT22;40963;52.168;21.296;2023-06-10T02:54:19;15.70;94.00
55064;DHT22;40963;52.168;21.296;2023-06-10T02:56:45;15.70;93.80
55064;DHT22;40963;52.168;21.296;2023-06-10T02:59:11;15.70;93.50
55064;DHT22;40963;52.168;21.296;2023-06-10T03:01:37;15.80;93.30
55064;DHT22;40963;52.168;21.296;2023-06-10T03:04:04;15.80;93.10
55064;DHT22;40963;52.168;21.296;2023-06-10T03:06:30;15.80;92.80
55064;DHT22;40963;52.168;21.296;2023-06-10T03:08:56;15.80;92.70
55064;DHT22;40963;52.168;21.296;2023-06-10T03:11:21;15.80;92.40
55064;DHT22;40963;52.168;21.296;2023-06-10T03:13:48;15.80;92.40
55064;DHT22;40963;52.168;21.296;2023-06-10T03:16:13;15.80;92.20
55064;DHT22;40963;52.168;21.296;2023-06-10T03:18:39;15.90;92.10
55064;DHT22;40963;52.168;21.296;2023-06-10T03:21:05;15.90;92.00
55064;DHT22;40963;52.168;21.296;2023-06-10T03:23:30;15.90;91.80
55064;DHT22;40963;52.168;21.296;2023-06-10T03:25:56;15.90;91.80
55064;DHT22;40963;52.168;21.296;2023-06-10T03:28:21;16.00;91.90
55064;DHT22;40963;52.168;21.296;2023-06-10T03:30:48;16.00;91.90
55064;DHT22;40963;52.168;21.296;2023-06-10T03:33:13;16.00;91.80
55064;DHT22;40963;52.168;21.296;2023-06-10T03:35:39;16.00;91.80
55064;DHT22;40963;52.168;21.296;2023-06-10T03:38:05;16.10;91.80
55064;DHT22;40963;52.168;21.296;2023-06-10T03:40:31;16.10;91.80
55064;DHT22;40963;52.168;21.296;2023-06-10T03:42:57;16.10;91.90
55064;DHT22;40963;52.168;21.296;2023-06-10T03:45:23;16.20;91.80
55064;DHT22;40963;52.168;21.296;2023-06-10T03:47:50;16.20;91.80
55064;DHT22;40963;52.168;21.296;2023-06-10T03:50:16;16.30;91.80
55064;DHT22;40963;52.168;21.296;2023-06-10T03:52:41;16.40;91.80
55064;DHT22;40963;52.168;21.296;2023-06-10T03:55:07;16.40;91.70
55064;DHT22;40963;52.168;21.296;2023-06-10T03:57:33;16.50;91.50
55064;DHT22;40963;52.168;21.296;2023-06-10T03:59:59;16.60;91.40
55064;DHT22;40963;52.168;21.296;2023-06-10T04:02:24;16.70;91.30
55064;DHT22;40963;52.168;21.296;2023-06-10T04:04:50;16.70;91.20
55064;DHT22;40963;52.168;21.296;2023-06-10T04:07:16;16.80;91.00
55064;DHT22;40963;52.168;21.296;2023-06-10T04:09:44;16.90;90.90
55064;DHT22;40963;52.168;21.296;2023-06-10T04:12:09;16.90;90.80
55064;DHT22;40963;52.168;21.296;2023-06-10T04:14:36;17.00;91.00
55064;DHT22;40963;52.168;21.296;2023-06-10T04:17:04;17.00;90.90
55064;DHT22;40963;52.168;21.296;2023-06-10T04:19:32;17.00;90.70
55064;DHT22;40963;52.168;21.296;2023-06-10T04:22:00;17.00;90.70
55064;DHT22;40963;52.168;21.296;2023-06-10T04:24:25;17.10;90.80
55064;DHT22;40963;52.168;21.296;2023-06-10T04:26:51;17.10;90.90
55064;DHT22;40963;52.168;21.296;2023-06-10T04:29:17;17.10;90.80
55064;DHT22;40963;52.168;21.296;2023-06-10T04:31:42;17.20;90.80
55064;DHT22;40963;52.168;21.296;2023-06-10T04:34:08;17.20;91.00
55064;DHT22;40963;52.168;21.296;2023-06-10T04:36:34;17.20;91.00
55064;DHT22;40963;52.168;21.296;2023-06-10T04:38:59;17.20;91.30
55064;DHT22;40963;52.168;21.296;2023-06-10T04:41:25;17.30;91.20
55064;DHT22;40963;52.168;21.296;2023-06-10T04:43:52;17.30;91.30
55064;DHT22;40963;52.168;21.296;2023-06-10T04:46:19;17.30;91.30
55064;DHT22;40963;52.168;21.296;2023-06-10T04:48:44;17.30;91.40
55064;DHT22;40963;52.168;21.296;2023-06-10T04:51:12;17.40;91.40
55064;DHT22;40963;52.168;21.296;2023-06-10T04:53:38;17.40;91.30
55064;DHT22;40963;52.168;21.296;2023-06-10T04:56:04;17.50;91.10
55064;DHT22;40963;52.168;21.296;2023-06-10T04:58:30;17.50;91.00
55064;DHT22;40963;52.168;21.296;2023-06-10T05:00:55;17.60;90.80
55064;DHT22;40963;52.168;21.296;2023-06-10T05:03:21;17.60;90.60
55064;DHT22;40963;52.168;21.296;2023-06-10T05:05:47;17.70;90.50
55064;DHT22;40963;52.168;21.296;2023-06-10T05:08:12;17.80;90.20
55064;DHT22;40963;52.168;21.296;2023-06-10T05:10:38;17.90;90.00
55064;DHT22;40963;52.168;21.296;2023-06-10T05:13:04;18.00;89.80
55064;DHT22;40963;52.168;21.296;2023-06-10T05:15:29;18.00;89.70
55064;DHT22;40963;52.168;21.296;2023-06-10T05:17:56;18.10;89.40
55064;DHT22;40963;52.168;21.296;2023-06-10T05:20:23;18.20;88.50
55064;DHT22;40963;52.168;21.296;2023-06-10T05:22:50;18.20;87.80
55064;DHT22;40963;52.168;21.296;2023-06-10T05:25:16;18.30;88.00
55064;DHT22;40963;52.168;21.296;2023-06-10T05:27:42;18.40;87.50
55064;DHT22;40963;52.168;21.296;2023-06-10T05:30:09;18.40;87.30
55064;DHT22;40963;52.168;21.296;2023-06-10T05:32:35;18.50;86.90
55064;DHT22;40963;52.168;21.296;2023-06-10T05:35:01;18.60;86.90
55064;DHT22;40963;52.168;21.296;2023-06-10T05:37:29;18.70;86.60
55064;DHT22;40963;52.168;21.296;2023-06-10T05:39:54;18.80;85.50
55064;DHT22;40963;52.168;21.296;2023-06-10T05:42:20;18.80;85.00
55064;DHT22;40963;52.168;21.296;2023-06-10T05:44:46;18.90;84.80
55064;DHT22;40963;52.168;21.296;2023-06-10T05:47:11;19.10;84.40
55064;DHT22;40963;52.168;21.296;2023-06-10T05:49:37;19.10;83.60
55064;DHT22;40963;52.168;21.296;2023-06-10T05:52:03;19.20;83.30
55064;DHT22;40963;52.168;21.296;2023-06-10T05:54:28;19.20;82.50
55064;DHT22;40963;52.168;21.296;2023-06-10T05:56:54;19.30;81.90
55064;DHT22;40963;52.168;21.296;2023-06-10T05:59:20;19.30;82.00
55064;DHT22;40963;52.168;21.296;2023-06-10T06:01:45;19.30;81.50
55064;DHT22;40963;52.168;21.296;2023-06-10T06:04:11;19.30;81.30
55064;DHT22;40963;52.168;21.296;2023-06-10T06:06:38;19.30;80.80
55064;DHT22;40963;52.168;21.296;2023-06-10T06:09:04;19.30;80.40
55064;DHT22;40963;52.168;21.296;2023-06-10T06:11:30;19.30;80.70
55064;DHT22;40963;52.168;21.296;2023-06-10T06:13:56;19.30;80.80
55064;DHT22;40963;52.168;21.296;2023-06-10T06:16:21;19.30;81.00
55064;DHT22;40963;52.168;21.296;2023-06-10T06:18:47;19.30;80.80
55064;DHT22;40963;52.168;21.296;2023-06-10T06:21:13;19.40;81.00
55064;DHT22;40963;52.168;21.296;2023-06-10T06:23:38;19.40;80.90
55064;DHT22;40963;52.168;21.296;2023-06-10T06:26:04;19.50;81.10
55064;DHT22;40963;52.168;21.296;2023-06-10T06:28:29;19.50;80.70
55064;DHT22;40963;52.168;21.296;2023-06-10T06:30:56;19.50;80.90
55064;DHT22;40963;52.168;21.296;2023-06-10T06:33:22;19.60;80.60
55064;DHT22;40963;52.168;21.296;2023-06-10T06:35:48;19.70;81.10
55064;DHT22;40963;52.168;21.296;2023-06-10T06:38:13;19.70;80.70
55064;DHT22;40963;52.168;21.296;2023-06-10T06:40:39;19.70;79.90
55064;DHT22;40963;52.168;21.296;2023-06-10T06:43:05;19.80;79.70
55064;DHT22;40963;52.168;21.296;2023-06-10T06:45:30;19.80;79.20
55064;DHT22;40963;52.168;21.296;2023-06-10T06:47:56;19.90;79.90
55064;DHT22;40963;52.168;21.296;2023-06-10T06:50:22;19.90;79.70
55064;DHT22;40963;52.168;21.296;2023-06-10T06:52:48;19.90;79.40
55064;DHT22;40963;52.168;21.296;2023-06-10T06:55:13;19.90;79.70
55064;DHT22;40963;52.168;21.296;2023-06-10T06:57:39;20.00;79.40
55064;DHT22;40963;52.168;21.296;2023-06-10T07:00:05;20.10;79.30
55064;DHT22;40963;52.168;21.296;2023-06-10T07:02:31;20.10;79.60
55064;DHT22;40963;52.168;21.296;2023-06-10T07:05:00;20.20;79.50
55064;DHT22;40963;52.168;21.296;2023-06-10T07:07:26;20.40;78.20
55064;DHT22;40963;52.168;21.296;2023-06-10T07:09:52;20.40;78.00
55064;DHT22;40963;52.168;21.296;2023-06-10T07:12:18;20.40;77.80
55064;DHT22;40963;52.168;21.296;2023-06-10T07:14:44;20.50;77.00
55064;DHT22;40963;52.168;21.296;2023-06-10T07:17:09;20.50;76.40
55064;DHT22;40963;52.168;21.296;2023-06-10T07:19:35;20.60;76.60
55064;DHT22;40963;52.168;21.296;2023-06-10T07:22:01;20.70;76.40
55064;DHT22;40963;52.168;21.296;2023-06-10T07:24:26;20.80;76.10
55064;DHT22;40963;52.168;21.296;2023-06-10T07:26:52;20.80;75.40
55064;DHT22;40963;52.168;21.296;2023-06-10T07:29:17;20.90;75.70
55064;DHT22;40963;52.168;21.296;2023-06-10T07:31:43;21.00;75.30
55064;DHT22;40963;52.168;21.296;2023-06-10T07:34:09;21.00;75.20
55064;DHT22;40963;52.168;21.296;2023-06-10T07:36:34;21.10;75.20
55064;DHT22;40963;52.168;21.296;2023-06-10T07:39:00;21.20;74.80
55064;DHT22;40963;52.168;21.296;2023-06-10T07:41:26;21.20;73.80
55064;DHT22;40963;52.168;21.296;2023-06-10T07:43:53;21.30;73.30
55064;DHT22;40963;52.168;21.296;2023-06-10T07:46:22;21.40;73.00
55064;DHT22;40963;52.168;21.296;2023-06-10T07:48:48;21.40;73.10
55064;DHT22;40963;52.168;21.296;2023-06-10T07:51:15;21.50;72.90
55064;DHT22;40963;52.168;21.296;2023-06-10T07:53:41;21.50;73.20
55064;DHT22;40963;52.168;21.296;2023-06-10T07:56:07;21.60;73.10
55064;DHT22;40963;52.168;21.296;2023-06-10T07:58:32;21.70;73.10
55064;DHT22;40963;52.168;21.296;2023-06-10T08:00:58;21.80;72.90
55064;DHT22;40963;52.168;21.296;2023-06-10T08:03:23;21.80;72.50
55064;DHT22;40963;52.168;21.296;2023-06-10T08:05:49;21.90;72.50
55064;DHT22;40963;52.168;21.296;2023-06-10T08:08:15;22.00;71.90
55064;DHT22;40963;52.168;21.296;2023-06-10T08:10:40;22.10;71.50
55064;DHT22;40963;52.168;21.296;2023-06-10T08:13:07;22.10;70.60
55064;DHT22;40963;52.168;21.296;2023-06-10T08:15:33;22.10;70.50
55064;DHT22;40963;52.168;21.296;2023-06-10T08:17:58;22.20;70.80
55064;DHT22;40963;52.168;21.296;2023-06-10T08:20:24;22.20;70.10
55064;DHT22;40963;52.168;21.296;2023-06-10T08:22:50;22.20;69.80
55064;DHT22;40963;52.168;21.296;2023-06-10T08:25:16;22.20;69.80
55064;DHT22;40963;52.168;21.296;2023-06-10T08:27:41;22.20;69.30
55064;DHT22;40963;52.168;21.296;2023-06-10T08:30:07;22.20;69.30
55064;DHT22;40963;52.168;21.296;2023-06-10T08:32:35;22.30;69.30
55064;DHT22;40963;52.168;21.296;2023-06-10T08:35:00;22.30;69.30
55064;DHT22;40963;52.168;21.296;2023-06-10T08:37:26;22.40;69.00
55064;DHT22;40963;52.168;21.296;2023-06-10T08:39:52;22.50;68.60
55064;DHT22;40963;52.168;21.296;2023-06-10T08:42:28;22.50;68.10
55064;DHT22;40963;52.168;21.296;2023-06-10T08:45:00;22.50;67.70
55064;DHT22;40963;52.168;21.296;2023-06-10T08:47:29;22.60;68.10
55064;DHT22;40963;52.168;21.296;2023-06-10T08:49:57;22.70;67.80
55064;DHT22;40963;52.168;21.296;2023-06-10T08:52:29;22.70;67.20
55064;DHT22;40963;52.168;21.296;2023-06-10T08:55:01;22.80;66.40
55064;DHT22;40963;52.168;21.296;2023-06-10T08:57:29;22.70;64.50
55064;DHT22;40963;52.168;21.296;2023-06-10T08:59:57;22.70;64.40
55064;DHT22;40963;52.168;21.296;2023-06-10T09:02:24;22.70;64.60
55064;DHT22;40963;52.168;21.296;2023-06-10T09:04:50;22.80;63.60
55064;DHT22;40963;52.168;21.296;2023-06-10T09:07:16;22.70;62.80
55064;DHT22;40963;52.168;21.296;2023-06-10T09:09:43;22.70;63.60
55064;DHT22;40963;52.168;21.296;2023-06-10T09:12:09;22.70;63.80
55064;DHT22;40963;52.168;21.296;2023-06-10T09:14:36;22.80;63.00
55064;DHT22;40963;52.168;21.296;2023-06-10T09:17:02;22.90;63.40
55064;DHT22;40963;52.168;21.296;2023-06-10T09:19:28;23.00;62.70
55064;DHT22;40963;52.168;21.296;2023-06-10T09:21:54;23.10;61.60
55064;DHT22;40963;52.168;21.296;2023-06-10T09:24:22;23.20;61.60
55064;DHT22;40963;52.168;21.296;2023-06-10T09:26:48;23.20;61.20
55064;DHT22;40963;52.168;21.296;2023-06-10T09:29:13;23.30;60.80
55064;DHT22;40963;52.168;21.296;2023-06-10T09:31:40;23.20;60.00
55064;DHT22;40963;52.168;21.296;2023-06-10T09:34:12;23.20;59.80
55064;DHT22;40963;52.168;21.296;2023-06-10T09:36:39;23.20;59.50
55064;DHT22;40963;52.168;21.296;2023-06-10T09:39:05;23.20;59.30
55064;DHT22;40963;52.168;21.296;2023-06-10T09:41:42;23.10;59.30
55064;DHT22;40963;52.168;21.296;2023-06-10T09:44:15;23.10;59.80
55064;DHT22;40963;52.168;21.296;2023-06-10T09:46:41;23.10;60.00
55064;DHT22;40963;52.168;21.296;2023-06-10T09:49:07;23.20;59.40
55064;DHT22;40963;52.168;21.296;2023-06-10T09:51:33;23.20;58.90
55064;DHT22;40963;52.168;21.296;2023-06-10T09:53:59;23.10;57.40
55064;DHT22;40963;52.168;21.296;2023-06-10T09:56:34;23.10;57.60
55064;DHT22;40963;52.168;21.296;2023-06-10T09:59:00;23.20;57.30
55064;DHT22;40963;52.168;21.296;2023-06-10T10:01:26;23.20;57.10
55064;DHT22;40963;52.168;21.296;2023-06-10T10:03:52;23.30;57.00
55064;DHT22;40963;52.168;21.296;2023-06-10T10:06:19;23.30;57.10
55064;DHT22;40963;52.168;21.296;2023-06-10T10:08:46;23.40;56.20
55064;DHT22;40963;52.168;21.296;2023-06-10T10:11:12;23.40;55.30
55064;DHT22;40963;52.168;21.296;2023-06-10T10:13:39;23.50;55.00
55064;DHT22;40963;52.168;21.296;2023-06-10T10:16:11;23.60;55.70
55064;DHT22;40963;52.168;21.296;2023-06-10T10:18:43;23.60;56.30
55064;DHT22;40963;52.168;21.296;2023-06-10T10:21:16;23.60;56.40
55064;DHT22;40963;52.168;21.296;2023-06-10T10:26:34;23.60;56.60
55064;DHT22;40963;52.168;21.296;2023-06-10T10:29:11;23.60;56.80
55064;DHT22;40963;52.168;21.296;2023-06-10T10:31:42;23.60;57.30
55064;DHT22;40963;52.168;21.296;2023-06-10T10:34:15;23.50;58.30
55064;DHT22;40963;52.168;21.296;2023-06-10T10:36:42;23.60;59.10
55064;DHT22;40963;52.168;21.296;2023-06-10T10:39:08;23.60;59.10
55064;DHT22;40963;52.168;21.296;2023-06-10T10:41:36;23.70;59.40
55064;DHT22;40963;52.168;21.296;2023-06-10T10:44:03;23.70;60.00
55064;DHT22;40963;52.168;21.296;2023-06-10T10:46:48;23.80;60.70
55064;DHT22;40963;52.168;21.296;2023-06-10T10:49:15;24.00;60.20
55064;DHT22;40963;52.168;21.296;2023-06-10T10:51:57;24.10;59.70
55064;DHT22;40963;52.168;21.296;2023-06-10T10:54:31;24.20;59.50
55064;DHT22;40963;52.168;21.296;2023-06-10T10:57:19;24.30;60.00
55064;DHT22;40963;52.168;21.296;2023-06-10T11:02:18;24.20;60.10
55064;DHT22;40963;52.168;21.296;2023-06-10T11:04:47;24.10;59.80
55064;DHT22;40963;52.168;21.296;2023-06-10T11:07:13;24.00;60.30
55064;DHT22;40963;52.168;21.296;2023-06-10T11:10:17;23.90;60.70
55064;DHT22;40963;52.168;21.296;2023-06-10T11:15:19;23.80;61.30
55064;DHT22;40963;52.168;21.296;2023-06-10T11:18:22;23.80;61.40
55064;DHT22;40963;52.168;21.296;2023-06-10T11:23:38;23.80;61.30
55064;DHT22;40963;52.168;21.296;2023-06-10T11:31:22;23.90;62.30
55064;DHT22;40963;52.168;21.296;2023-06-10T11:36:24;24.00;61.40
55064;DHT22;40963;52.168;21.296;2023-06-10T11:38:53;24.00;61.60
55064;DHT22;40963;52.168;21.296;2023-06-10T11:41:19;24.10;61.80
55064;DHT22;40963;52.168;21.296;2023-06-10T11:43:45;24.10;61.90
55064;DHT22;40963;52.168;21.296;2023-06-10T11:46:11;24.00;61.30
55064;DHT22;40963;52.168;21.296;2023-06-10T11:48:37;24.00;61.40
55064;DHT22;40963;52.168;21.296;2023-06-10T11:51:09;23.90;61.90
55064;DHT22;40963;52.168;21.296;2023-06-10T11:53:35;23.90;62.60
55064;DHT22;40963;52.168;21.296;2023-06-10T11:56:00;24.00;63.00
55064;DHT22;40963;52.168;21.296;2023-06-10T11:58:26;24.10;63.10
55064;DHT22;40963;52.168;21.296;2023-06-10T12:00:53;24.20;63.20
55064;DHT22;40963;52.168;21.296;2023-06-10T12:03:20;24.20;63.30
55064;DHT22;40963;52.168;21.296;2023-06-10T12:08:24;24.30;63.40
55064;DHT22;40963;52.168;21.296;2023-06-10T12:10:50;24.30;63.20
55064;DHT22;40963;52.168;21.296;2023-06-10T12:13:16;24.50;63.00
55064;DHT22;40963;52.168;21.296;2023-06-10T12:15:43;24.50;62.80
55064;DHT22;40963;52.168;21.296;2023-06-10T12:18:19;24.60;62.50
55064;DHT22;40963;52.168;21.296;2023-06-10T12:20:45;24.50;63.10
55064;DHT22;40963;52.168;21.296;2023-06-10T12:23:11;24.60;63.30
55064;DHT22;40963;52.168;21.296;2023-06-10T12:25:38;24.70;63.80
55064;DHT22;40963;52.168;21.296;2023-06-10T12:28:04;24.70;63.40
55064;DHT22;40963;52.168;21.296;2023-06-10T12:30:31;24.80;63.00
55064;DHT22;40963;52.168;21.296;2023-06-10T12:32:57;24.80;63.30
55064;DHT22;40963;52.168;21.296;2023-06-10T12:35:25;24.90;63.20
55064;DHT22;40963;52.168;21.296;2023-06-10T12:38:00;24.90;62.20
55064;DHT22;40963;52.168;21.296;2023-06-10T12:40:30;24.90;61.80
55064;DHT22;40963;52.168;21.296;2023-06-10T12:42:57;25.00;62.80
55064;DHT22;40963;52.168;21.296;2023-06-10T12:45:30;25.00;62.30
55064;DHT22;40963;52.168;21.296;2023-06-10T12:48:10;25.00;61.30
55064;DHT22;40963;52.168;21.296;2023-06-10T12:50:37;24.80;61.50
55064;DHT22;40963;52.168;21.296;2023-06-10T12:53:03;24.70;61.80
55064;DHT22;40963;52.168;21.296;2023-06-10T12:55:29;24.60;62.10
55064;DHT22;40963;52.168;21.296;2023-06-10T12:57:55;24.60;62.10
55064;DHT22;40963;52.168;21.296;2023-06-10T13:00:22;24.70;61.80
55064;DHT22;40963;52.168;21.296;2023-06-10T13:02:51;24.80;61.90
55064;DHT22;40963;52.168;21.296;2023-06-10T13:05:18;24.70;61.20
55064;DHT22;40963;52.168;21.296;2023-06-10T13:07:44;24.60;61.10
55064;DHT22;40963;52.168;21.296;2023-06-10T13:10:10;24.40;61.80
55064;DHT22;40963;52.168;21.296;2023-06-10T13:12:36;24.40;62.20
55064;DHT22;40963;52.168;21.296;2023-06-10T13:15:02;24.40;63.50
55064;DHT22;40963;52.168;21.296;2023-06-10T13:17:28;24.50;62.90
55064;DHT22;40963;52.168;21.296;2023-06-10T13:19:54;24.50;61.80
55064;DHT22;40963;52.168;21.296;2023-06-10T13:22:20;24.50;62.50
55064;DHT22;40963;52.168;21.296;2023-06-10T13:24:47;24.60;61.60
55064;DHT22;40963;52.168;21.296;2023-06-10T13:27:12;24.50;61.10
55064;DHT22;40963;52.168;21.296;2023-06-10T13:29:39;24.50;60.40
55064;DHT22;40963;52.168;21.296;2023-06-10T13:32:05;24.50;61.30
55064;DHT22;40963;52.168;21.296;2023-06-10T13:34:31;24.60;61.60
55064;DHT22;40963;52.168;21.296;2023-06-10T13:36:57;24.70;61.60
55064;DHT22;40963;52.168;21.296;2023-06-10T13:39:22;24.80;61.40
55064;DHT22;40963;52.168;21.296;2023-06-10T13:41:48;24.80;61.10
55064;DHT22;40963;52.168;21.296;2023-06-10T13:44:14;24.80;60.50
55064;DHT22;40963;52.168;21.296;2023-06-10T13:46:40;24.80;60.20
55064;DHT22;40963;52.168;21.296;2023-06-10T13:49:05;24.70;61.00
55064;DHT22;40963;52.168;21.296;2023-06-10T13:51:31;24.70;60.90
55064;DHT22;40963;52.168;21.296;2023-06-10T13:53:56;24.80;60.60
55064;DHT22;40963;52.168;21.296;2023-06-10T13:56:22;24.70;59.60
55064;DHT22;40963;52.168;21.296;2023-06-10T13:58:48;24.70;59.30
55064;DHT22;40963;52.168;21.296;2023-06-10T14:01:14;24.80;59.40
55064;DHT22;40963;52.168;21.296;2023-06-10T14:03:39;25.00;59.90
55064;DHT22;40963;52.168;21.296;2023-06-10T14:06:05;25.10;60.00
55064;DHT22;40963;52.168;21.296;2023-06-10T14:08:31;25.20;59.40
55064;DHT22;40963;52.168;21.296;2023-06-10T14:10:56;25.10;58.60
55064;DHT22;40963;52.168;21.296;2023-06-10T14:13:22;25.00;58.80
55064;DHT22;40963;52.168;21.296;2023-06-10T14:15:47;24.90;59.60
55064;DHT22;40963;52.168;21.296;2023-06-10T14:18:13;24.90;60.10
55064;DHT22;40963;52.168;21.296;2023-06-10T14:20:39;25.00;60.50
55064;DHT22;40963;52.168;21.296;2023-06-10T14:23:04;25.00;60.10
55064;DHT22;40963;52.168;21.296;2023-06-10T14:25:30;25.00;59.50
55064;DHT22;40963;52.168;21.296;2023-06-10T14:27:55;24.70;59.30
55064;DHT22;40963;52.168;21.296;2023-06-10T14:30:21;24.60;59.50
55064;DHT22;40963;52.168;21.296;2023-06-10T14:32:47;24.40;60.10
55064;DHT22;40963;52.168;21.296;2023-06-10T14:35:12;24.40;61.30
55064;DHT22;40963;52.168;21.296;2023-06-10T14:37:38;24.50;61.40
55064;DHT22;40963;52.168;21.296;2023-06-10T14:40:04;24.50;61.30
55064;DHT22;40963;52.168;21.296;2023-06-10T14:42:30;24.60;61.50
55064;DHT22;40963;52.168;21.296;2023-06-10T14:44:57;24.60;60.40
55064;DHT22;40963;52.168;21.296;2023-06-10T14:47:23;24.60;60.00
55064;DHT22;40963;52.168;21.296;2023-06-10T14:49:49;24.60;60.00
55064;DHT22;40963;52.168;21.296;2023-06-10T14:52:15;24.60;60.60
55064;DHT22;40963;52.168;21.296;2023-06-10T14:54:41;24.70;60.80
55064;DHT22;40963;52.168;21.296;2023-06-10T14:57:07;24.70;60.50
55064;DHT22;40963;52.168;21.296;2023-06-10T14:59:33;24.80;59.80
55064;DHT22;40963;52.168;21.296;2023-06-10T15:01:59;24.80;59.70
55064;DHT22;40963;52.168;21.296;2023-06-10T15:04:26;24.80;59.60
55064;DHT22;40963;52.168;21.296;2023-06-10T15:06:52;24.80;59.40
55064;DHT22;40963;52.168;21.296;2023-06-10T15:09:18;24.80;59.40
55064;DHT22;40963;52.168;21.296;2023-06-10T15:11:44;24.80;58.80
55064;DHT22;40963;52.168;21.296;2023-06-10T15:14:09;24.80;58.60
55064;DHT22;40963;52.168;21.296;2023-06-10T15:16:35;24.70;58.50
55064;DHT22;40963;52.168;21.296;2023-06-10T15:19:01;24.60;58.60
55064;DHT22;40963;52.168;21.296;2023-06-10T15:21:26;24.70;59.40
55064;DHT22;40963;52.168;21.296;2023-06-10T15:23:52;24.80;59.20
55064;DHT22;40963;52.168;21.296;2023-06-10T15:26:18;24.90;59.40
55064;DHT22;40963;52.168;21.296;2023-06-10T15:28:44;25.00;59.70
55064;DHT22;40963;52.168;21.296;2023-06-10T15:31:09;25.10;59.20
55064;DHT22;40963;52.168;21.296;2023-06-10T15:33:35;24.90;57.70
55064;DHT22;40963;52.168;21.296;2023-06-10T15:36:01;24.70;58.00
55064;DHT22;40963;52.168;21.296;2023-06-10T15:38:27;24.50;58.50